sensor_id;sensor_type;location;lat;lon;timestamp;temperature;humidity
29353;DHT22;16344;50.364;8.944;2022-08-19T00:01:44;23.00;37.80
29353;DHT22;16344;50.364;8.944;2022-08-19T00:04:13;23.20;24.20
29353;DHT22;16344;50.364;8.944;2022-08-19T00:06:40;23.10;22.70
29353;DHT22;16344;50.364;8.944;2022-08-19T00:09:08;23.10;28.10
29353;DHT22;16344;50.364;8.944;2022-08-19T00:11:34;23.10;26.20
29353;DHT22;16344;50.364;8.944;2022-08-19T00:14:02;23.20;17.00
29353;DHT22;16344;50.364;8.944;2022-08-19T00:16:28;23.20;20.70
29353;DHT22;16344;50.364;8.944;2022-08-19T00:18:54;23.10;20.70
29353;DHT22;16344;50.364;8.944;2022-08-19T00:21:24;23.00;25.60
29353;DHT22;16344;50.364;8.944;2022-08-19T00:23:50;22.80;48.20
29353;DHT22;16344;50.364;8.944;2022-08-19T00:26:15;22.80;61.50
29353;DHT22;16344;50.364;8.944;2022-08-19T00:28:41;22.70;69.10
29353;DHT22;16344;50.364;8.944;2022-08-19T00:31:07;22.70;64.90
29353;DHT22;16344;50.364;8.944;2022-08-19T00:33:34;22.80;59.50
29353;DHT22;16344;50.364;8.944;2022-08-19T00:36:00;22.70;73.50
29353;DHT22;16344;50.364;8.944;2022-08-19T00:38:26;22.60;90.00
29353;DHT22;16344;50.364;8.944;2022-08-19T00:40:53;22.60;92.90
29353;DHT22;16344;50.364;8.944;2022-08-19T00:43:20;22.60;93.30
29353;DHT22;16344;50.364;8.944;2022-08-19T00:45:47;22.60;93.90
29353;DHT22;16344;50.364;8.944;2022-08-19T00:48:13;22.50;99.90
29353;DHT22;16344;50.364;8.944;2022-08-19T00:50:40;22.50;99.90
29353;DHT22;16344;50.364;8.944;2022-08-19T00:53:12;22.50;99.90
29353;DHT22;16344;50.364;8.944;2022-08-19T00:55:42;22.30;99.90
29353;DHT22;16344;50.364;8.944;2022-08-19T00:58:12;22.40;99.90
29353;DHT22;16344;50.364;8.944;2022-08-19T01:00:39;22.30;99.90
29353;DHT22;16344;50.364;8.944;2022-08-19T01:03:07;22.30;99.90
29353;DHT22;16344;50.364;8.944;2022-08-19T01:05:33;22.30;99.90
29353;DHT22;16344;50.364;8.944;2022-08-19T01:08:02;22.40;99.90
29353;DHT22;16344;50.364;8.944;2022-08-19T01:10:31;22.40;99.90
29353;DHT22;16344;50.364;8.944;2022-08-19T01:12:58;22.30;99.90
29353;DHT22;16344;50.364;8.944;2022-08-19T01:15:27;22.30;99.90
29353;DHT22;16344;50.364;8.944;2022-08-19T01:17:55;22.30;99.90
29353;DHT22;16344;50.364;8.944;2022-08-19T01:20:23;22.30;99.90
29353;DHT22;16344;50.364;8.944;2022-08-19T01:22:53;22.40;99.90
29353;DHT22;16344;50.364;8.944;2022-08-19T01:25:26;22.30;99.90
29353;DHT22;16344;50.364;8.944;2022-08-19T01:27:53;22.30;99.90
29353;DHT22;16344;50.364;8.944;2022-08-19T01:30:24;22.30;99.90
29353;DHT22;16344;50.364;8.944;2022-08-19T01:32:52;22.40;99.90
29353;DHT22;16344;50.364;8.944;2022-08-19T01:35:18;22.30;99.90
29353;DHT22;16344;50.364;8.944;2022-08-19T01:37:48;22.20;99.90
29353;DHT22;16344;50.364;8.944;2022-08-19T01:40:14;22.20;99.90
29353;DHT22;16344;50.364;8.944;2022-08-19T01:42:40;22.20;99.90
29353;DHT22;16344;50.364;8.944;2022-08-19T01:45:06;22.10;99.90
29353;DHT22;16344;50.364;8.944;2022-08-19T01:47:35;22.20;99.90
29353;DHT22;16344;50.364;8.944;2022-08-19T01:50:00;22.20;99.90
29353;DHT22;16344;50.364;8.944;2022-08-19T01:52:26;22.20;99.90
29353;DHT22;16344;50.364;8.944;2022-08-19T01:54:52;22.20;99.90
29353;DHT22;16344;50.364;8.944;2022-08-19T01:57:18;22.20;99.90
29353;DHT22;16344;50.364;8.944;2022-08-19T01:59:45;22.30;99.90
29353;DHT22;16344;50.364;8.944;2022-08-19T02:02:10;22.20;99.90
29353;DHT22;16344;50.364;8.944;2022-08-19T02:04:36;22.20;99.90
29353;DHT22;16344;50.364;8.944;2022-08-19T02:07:06;22.30;99.90
29353;DHT22;16344;50.364;8.944;2022-08-19T02:09:33;22.40;99.90
29353;DHT22;16344;50.364;8.944;2022-08-19T02:11:59;22.40;99.90
29353;DHT22;16344;50.364;8.944;2022-08-19T02:14:24;22.30;99.90
29353;DHT22;16344;50.364;8.944;2022-08-19T02:16:50;22.40;99.90
29353;DHT22;16344;50.364;8.944;2022-08-19T02:19:15;22.40;99.90
29353;DHT22;16344;50.364;8.944;2022-08-19T02:21:41;22.30;99.90
29353;DHT22;16344;50.364;8.944;2022-08-19T02:24:08;22.30;99.90
29353;DHT22;16344;50.364;8.944;2022-08-19T02:26:34;22.30;99.90
29353;DHT22;16344;50.364;8.944;2022-08-19T02:28:59;22.40;99.90
29353;DHT22;16344;50.364;8.944;2022-08-19T02:31:26;22.50;99.90
29353;DHT22;16344;50.364;8.944;2022-08-19T02:33:53;22.40;99.90
29353;DHT22;16344;50.364;8.944;2022-08-19T02:36:19;22.40;99.90
29353;DHT22;16344;50.364;8.944;2022-08-19T02:38:45;22.30;99.90
29353;DHT22;16344;50.364;8.944;2022-08-19T02:41:15;22.30;99.90
29353;DHT22;16344;50.364;8.944;2022-08-19T02:43:41;22.30;99.90
29353;DHT22;16344;50.364;8.944;2022-08-19T02:46:20;22.30;99.90
29353;DHT22;16344;50.364;8.944;2022-08-19T02:48:48;22.20;99.90
29353;DHT22;16344;50.364;8.944;2022-08-19T02:51:19;22.10;99.90
29353;DHT22;16344;50.364;8.944;2022-08-19T02:53:45;22.00;99.90
29353;DHT22;16344;50.364;8.944;2022-08-19T02:56:10;22.00;99.90
29353;DHT22;16344;50.364;8.944;2022-08-19T02:58:36;22.00;99.90
29353;DHT22;16344;50.364;8.944;2022-08-19T03:01:02;22.10;99.90
29353;DHT22;16344;50.364;8.944;2022-08-19T03:03:27;22.10;99.90
29353;DHT22;16344;50.364;8.944;2022-08-19T03:06:07;22.00;99.90
29353;DHT22;16344;50.364;8.944;2022-08-19T03:08:33;22.10;99.90
29353;DHT22;16344;50.364;8.944;2022-08-19T03:10:59;22.20;99.90
29353;DHT22;16344;50.364;8.944;2022-08-19T03:13:24;22.00;99.90
29353;DHT22;16344;50.364;8.944;2022-08-19T03:15:50;21.90;99.90
29353;DHT22;16344;50.364;8.944;2022-08-19T03:18:16;21.90;99.90
29353;DHT22;16344;50.364;8.944;2022-08-19T03:20:47;21.90;99.90
29353;DHT22;16344;50.364;8.944;2022-08-19T03:23:13;22.00;99.90
29353;DHT22;16344;50.364;8.944;2022-08-19T03:25:45;22.10;99.90
29353;DHT22;16344;50.364;8.944;2022-08-19T03:28:12;22.10;99.90
29353;DHT22;16344;50.364;8.944;2022-08-19T03:30:39;22.20;99.90
29353;DHT22;16344;50.364;8.944;2022-08-19T03:33:06;22.20;99.90
29353;DHT22;16344;50.364;8.944;2022-08-19T03:35:32;22.20;99.90
29353;DHT22;16344;50.364;8.944;2022-08-19T03:37:59;22.20;99.90
29353;DHT22;16344;50.364;8.944;2022-08-19T03:40:25;22.10;99.90
29353;DHT22;16344;50.364;8.944;2022-08-19T03:42:51;22.20;99.90
29353;DHT22;16344;50.364;8.944;2022-08-19T03:45:17;22.20;99.90
29353;DHT22;16344;50.364;8.944;2022-08-19T03:47:42;22.20;99.90
29353;DHT22;16344;50.364;8.944;2022-08-19T03:50:08;22.10;99.90
29353;DHT22;16344;50.364;8.944;2022-08-19T03:52:34;22.00;99.90
29353;DHT22;16344;50.364;8.944;2022-08-19T03:55:01;22.10;99.90
29353;DHT22;16344;50.364;8.944;2022-08-19T03:57:26;22.00;99.90
29353;DHT22;16344;50.364;8.944;2022-08-19T03:59:52;22.00;99.90
29353;DHT22;16344;50.364;8.944;2022-08-19T04:02:17;22.00;99.90
29353;DHT22;16344;50.364;8.944;2022-08-19T04:04:43;21.90;99.90
29353;DHT22;16344;50.364;8.944;2022-08-19T04:07:10;21.90;99.90
29353;DHT22;16344;50.364;8.944;2022-08-19T04:09:36;22.00;99.90
29353;DHT22;16344;50.364;8.944;2022-08-19T04:12:03;21.90;99.90
29353;DHT22;16344;50.364;8.944;2022-08-19T04:14:31;21.80;99.90
29353;DHT22;16344;50.364;8.944;2022-08-19T04:17:00;21.80;99.90
29353;DHT22;16344;50.364;8.944;2022-08-19T04:19:29;21.80;99.90
29353;DHT22;16344;50.364;8.944;2022-08-19T04:21:54;21.80;99.90
29353;DHT22;16344;50.364;8.944;2022-08-19T04:24:21;21.70;99.90
29353;DHT22;16344;50.364;8.944;2022-08-19T04:26:47;21.50;99.90
29353;DHT22;16344;50.364;8.944;2022-08-19T04:29:20;21.60;99.90
29353;DHT22;16344;50.364;8.944;2022-08-19T04:31:47;21.70;99.90
29353;DHT22;16344;50.364;8.944;2022-08-19T04:34:15;21.70;99.90
29353;DHT22;16344;50.364;8.944;2022-08-19T04:36:45;21.70;99.90
29353;DHT22;16344;50.364;8.944;2022-08-19T04:39:14;21.60;99.90
29353;DHT22;16344;50.364;8.944;2022-08-19T04:41:40;21.70;99.90
29353;DHT22;16344;50.364;8.944;2022-08-19T04:44:24;21.60;99.90
29353;DHT22;16344;50.364;8.944;2022-08-19T04:46:51;21.60;99.90
29353;DHT22;16344;50.364;8.944;2022-08-19T04:49:18;21.50;99.90
29353;DHT22;16344;50.364;8.944;2022-08-19T04:51:45;21.50;99.90
29353;DHT22;16344;50.364;8.944;2022-08-19T04:54:13;21.60;99.90
29353;DHT22;16344;50.364;8.944;2022-08-19T04:56:40;21.60;99.90
29353;DHT22;16344;50.364;8.944;2022-08-19T04:59:06;21.50;99.90
29353;DHT22;16344;50.364;8.944;2022-08-19T05:01:33;21.50;99.90
29353;DHT22;16344;50.364;8.944;2022-08-19T05:04:00;21.60;99.90
29353;DHT22;16344;50.364;8.944;2022-08-19T05:06:27;21.60;99.90
29353;DHT22;16344;50.364;8.944;2022-08-19T05:08:54;21.60;99.90
29353;DHT22;16344;50.364;8.944;2022-08-19T05:11:24;21.80;99.90
29353;DHT22;16344;50.364;8.944;2022-08-19T05:13:51;21.70;99.90
29353;DHT22;16344;50.364;8.944;2022-08-19T05:16:20;21.60;99.90
29353;DHT22;16344;50.364;8.944;2022-08-19T05:18:47;21.70;99.90
29353;DHT22;16344;50.364;8.944;2022-08-19T05:21:32;21.70;99.90
29353;DHT22;16344;50.364;8.944;2022-08-19T05:24:19;21.70;99.90
29353;DHT22;16344;50.364;8.944;2022-08-19T05:26:48;21.80;99.90
29353;DHT22;16344;50.364;8.944;2022-08-19T05:29:15;21.80;99.90
29353;DHT22;16344;50.364;8.944;2022-08-19T05:31:42;21.80;99.90
29353;DHT22;16344;50.364;8.944;2022-08-19T05:34:07;21.80;99.90
29353;DHT22;16344;50.364;8.944;2022-08-19T05:36:36;21.90;99.90
29353;DHT22;16344;50.364;8.944;2022-08-19T05:39:05;21.90;99.90
29353;DHT22;16344;50.364;8.944;2022-08-19T05:41:31;22.00;99.90
29353;DHT22;16344;50.364;8.944;2022-08-19T05:43:57;22.10;99.90
29353;DHT22;16344;50.364;8.944;2022-08-19T05:46:23;22.10;99.90
29353;DHT22;16344;50.364;8.944;2022-08-19T05:48:48;22.10;99.90
29353;DHT22;16344;50.364;8.944;2022-08-19T05:51:15;22.10;99.90
29353;DHT22;16344;50.364;8.944;2022-08-19T05:53:41;22.00;99.90
29353;DHT22;16344;50.364;8.944;2022-08-19T05:56:11;22.00;99.90
29353;DHT22;16344;50.364;8.944;2022-08-19T05:58:37;22.10;99.90
29353;DHT22;16344;50.364;8.944;2022-08-19T06:01:15;22.00;99.90
29353;DHT22;16344;50.364;8.944;2022-08-19T06:03:41;22.00;99.90
29353;DHT22;16344;50.364;8.944;2022-08-19T06:06:12;21.90;99.90
29353;DHT22;16344;50.364;8.944;2022-08-19T06:08:38;22.00;99.90
29353;DHT22;16344;50.364;8.944;2022-08-19T06:11:20;22.10;99.90
29353;DHT22;16344;50.364;8.944;2022-08-19T06:13:49;22.00;99.90
29353;DHT22;16344;50.364;8.944;2022-08-19T06:16:16;22.10;99.90
29353;DHT22;16344;50.364;8.944;2022-08-19T06:18:50;22.20;99.90
29353;DHT22;16344;50.364;8.944;2022-08-19T06:21:21;22.20;99.90
29353;DHT22;16344;50.364;8.944;2022-08-19T06:23:48;22.20;99.90
29353;DHT22;16344;50.364;8.944;2022-08-19T06:26:15;22.30;99.90
29353;DHT22;16344;50.364;8.944;2022-08-19T06:28:41;22.60;99.90
29353;DHT22;16344;50.364;8.944;2022-08-19T06:31:15;22.90;99.90
29353;DHT22;16344;50.364;8.944;2022-08-19T06:33:42;23.10;99.90
29353;DHT22;16344;50.364;8.944;2022-08-19T06:36:15;23.10;99.90
29353;DHT22;16344;50.364;8.944;2022-08-19T06:38:40;23.10;99.90
29353;DHT22;16344;50.364;8.944;2022-08-19T06:41:06;23.20;99.90
29353;DHT22;16344;50.364;8.944;2022-08-19T06:43:31;23.10;99.90
29353;DHT22;16344;50.364;8.944;2022-08-19T06:45:57;23.00;99.90
29353;DHT22;16344;50.364;8.944;2022-08-19T06:48:24;23.10;99.90
29353;DHT22;16344;50.364;8.944;2022-08-19T06:50:49;23.30;99.90
29353;DHT22;16344;50.364;8.944;2022-08-19T06:53:16;23.40;99.90
29353;DHT22;16344;50.364;8.944;2022-08-19T06:55:44;23.60;99.90
29353;DHT22;16344;50.364;8.944;2022-08-19T06:58:10;23.80;99.90
29353;DHT22;16344;50.364;8.944;2022-08-19T07:00:36;23.90;99.90
29353;DHT22;16344;50.364;8.944;2022-08-19T07:03:02;24.10;88.30
29353;DHT22;16344;50.364;8.944;2022-08-19T07:05:28;24.00;91.90
29353;DHT22;16344;50.364;8.944;2022-08-19T07:07:53;24.10;89.90
29353;DHT22;16344;50.364;8.944;2022-08-19T07:10:19;24.20;67.40
29353;DHT22;16344;50.364;8.944;2022-08-19T07:12:45;24.10;55.80
29353;DHT22;16344;50.364;8.944;2022-08-19T07:15:11;24.00;67.10
29353;DHT22;16344;50.364;8.944;2022-08-19T07:17:37;24.10;77.50
29353;DHT22;16344;50.364;8.944;2022-08-19T07:20:05;24.30;80.50
29353;DHT22;16344;50.364;8.944;2022-08-19T07:22:33;24.30;48.00
29353;DHT22;16344;50.364;8.944;2022-08-19T07:24:59;24.60;18.10
29353;DHT22;16344;50.364;8.944;2022-08-19T07:27:25;24.70;1.00
29353;DHT22;16344;50.364;8.944;2022-08-19T07:29:52;24.80;1.00
29353;DHT22;16344;50.364;8.944;2022-08-19T07:32:18;25.00;1.00
29353;DHT22;16344;50.364;8.944;2022-08-19T07:34:43;24.90;1.00
29353;DHT22;16344;50.364;8.944;2022-08-19T07:37:10;24.70;1.00
29353;DHT22;16344;50.364;8.944;2022-08-19T07:39:37;24.80;1.00
29353;DHT22;16344;50.364;8.944;2022-08-19T07:42:06;24.90;1.00
29353;DHT22;16344;50.364;8.944;2022-08-19T07:44:33;24.80;1.00
29353;DHT22;16344;50.364;8.944;2022-08-19T07:46:59;25.00;1.00
29353;DHT22;16344;50.364;8.944;2022-08-19T07:49:25;25.00;1.00
29353;DHT22;16344;50.364;8.944;2022-08-19T07:52:09;25.10;1.00
29353;DHT22;16344;50.364;8.944;2022-08-19T07:54:36;25.20;1.00
29353;DHT22;16344;50.364;8.944;2022-08-19T07:57:03;25.10;1.00
29353;DHT22;16344;50.364;8.944;2022-08-19T07:59:29;25.10;1.00
29353;DHT22;16344;50.364;8.944;2022-08-19T08:01:56;25.00;1.00
29353;DHT22;16344;50.364;8.944;2022-08-19T08:04:22;25.00;1.00
29353;DHT22;16344;50.364;8.944;2022-08-19T08:07:07;24.90;1.00
29353;DHT22;16344;50.364;8.944;2022-08-19T08:09:52;24.90;1.00
29353;DHT22;16344;50.364;8.944;2022-08-19T08:12:31;24.80;1.00
29353;DHT22;16344;50.364;8.944;2022-08-19T08:14:59;24.90;1.00
29353;DHT22;16344;50.364;8.944;2022-08-19T08:17:28;25.00;1.00
29353;DHT22;16344;50.364;8.944;2022-08-19T08:19:54;25.10;1.00
29353;DHT22;16344;50.364;8.944;2022-08-19T08:22:22;25.10;1.00
29353;DHT22;16344;50.364;8.944;2022-08-19T08:25:13;24.90;1.00
29353;DHT22;16344;50.364;8.944;2022-08-19T08:27:41;24.90;1.00
29353;DHT22;16344;50.364;8.944;2022-08-19T08:30:11;25.00;1.00
29353;DHT22;16344;50.364;8.944;2022-08-19T08:32:38;25.10;1.00
29353;DHT22;16344;50.364;8.944;2022-08-19T08:35:06;25.10;1.00
29353;DHT22;16344;50.364;8.944;2022-08-19T08:37:32;25.10;1.00
29353;DHT22;16344;50.364;8.944;2022-08-19T08:39:57;25.20;1.00
29353;DHT22;16344;50.364;8.944;2022-08-19T08:42:31;25.20;1.00
29353;DHT22;16344;50.364;8.944;2022-08-19T08:45:02;25.40;1.00
29353;DHT22;16344;50.364;8.944;2022-08-19T08:47:34;25.40;1.00
29353;DHT22;16344;50.364;8.944;2022-08-19T08:50:06;25.70;1.00
29353;DHT22;16344;50.364;8.944;2022-08-19T08:52:36;25.60;1.00
29353;DHT22;16344;50.364;8.944;2022-08-19T08:55:21;25.70;1.00
29353;DHT22;16344;50.364;8.944;2022-08-19T09:03:01;26.00;1.00
29353;DHT22;16344;50.364;8.944;2022-08-19T09:05:59;26.00;1.00
29353;DHT22;16344;50.364;8.944;2022-08-19T09:08:34;26.20;1.00
29353;DHT22;16344;50.364;8.944;2022-08-19T09:11:06;26.20;1.00
29353;DHT22;16344;50.364;8.944;2022-08-19T09:16:06;26.50;1.00
29353;DHT22;16344;50.364;8.944;2022-08-19T09:21:13;26.70;1.00
29353;DHT22;16344;50.364;8.944;2022-08-19T09:23:39;27.00;1.00
29353;DHT22;16344;50.364;8.944;2022-08-19T09:26:16;27.10;1.00
29353;DHT22;16344;50.364;8.944;2022-08-19T09:28:45;27.30;1.00
29353;DHT22;16344;50.364;8.944;2022-08-19T09:31:19;27.40;1.00
29353;DHT22;16344;50.364;8.944;2022-08-19T09:33:45;27.50;1.00
29353;DHT22;16344;50.364;8.944;2022-08-19T09:36:12;27.70;1.00
29353;DHT22;16344;50.364;8.944;2022-08-19T09:38:39;27.80;1.00
29353;DHT22;16344;50.364;8.944;2022-08-19T09:41:14;27.90;1.00
29353;DHT22;16344;50.364;8.944;2022-08-19T09:43:41;28.00;1.00
29353;DHT22;16344;50.364;8.944;2022-08-19T09:46:09;27.80;1.00
29353;DHT22;16344;50.364;8.944;2022-08-19T09:48:35;28.00;1.00
29353;DHT22;16344;50.364;8.944;2022-08-19T09:51:12;27.90;1.00
29353;DHT22;16344;50.364;8.944;2022-08-19T09:53:41;27.90;1.00
29353;DHT22;16344;50.364;8.944;2022-08-19T09:56:07;27.90;1.00
29353;DHT22;16344;50.364;8.944;2022-08-19T09:58:33;28.00;1.00
29353;DHT22;16344;50.364;8.944;2022-08-19T10:01:00;28.20;1.00
29353;DHT22;16344;50.364;8.944;2022-08-19T10:03:28;28.30;1.00
29353;DHT22;16344;50.364;8.944;2022-08-19T10:05:54;28.50;1.00
29353;DHT22;16344;50.364;8.944;2022-08-19T10:08:24;28.40;1.00
29353;DHT22;16344;50.364;8.944;2022-08-19T10:10:51;28.50;99.90
29353;DHT22;16344;50.364;8.944;2022-08-19T10:13:19;28.50;99.90
29353;DHT22;16344;50.364;8.944;2022-08-19T10:15:47;28.50;99.90
29353;DHT22;16344;50.364;8.944;2022-08-19T10:18:17;28.40;99.90
29353;DHT22;16344;50.364;8.944;2022-08-19T10:20:44;28.10;99.90
29353;DHT22;16344;50.364;8.944;2022-08-19T10:23:11;28.00;99.90
29353;DHT22;16344;50.364;8.944;2022-08-19T10:25:37;28.10;99.90
29353;DHT22;16344;50.364;8.944;2022-08-19T10:28:03;28.30;99.90
29353;DHT22;16344;50.364;8.944;2022-08-19T10:30:29;28.60;99.90
29353;DHT22;16344;50.364;8.944;2022-08-19T10:32:55;28.50;99.90
29353;DHT22;16344;50.364;8.944;2022-08-19T10:35:20;28.50;99.90
29353;DHT22;16344;50.364;8.944;2022-08-19T10:37:46;28.40;99.90
29353;DHT22;16344;50.364;8.944;2022-08-19T10:40:12;28.30;99.90
29353;DHT22;16344;50.364;8.944;2022-08-19T10:42:37;28.30;99.90
29353;DHT22;16344;50.364;8.944;2022-08-19T10:45:05;28.20;99.90
29353;DHT22;16344;50.364;8.944;2022-08-19T10:47:33;28.30;99.90
29353;DHT22;16344;50.364;8.944;2022-08-19T10:49:59;28.50;99.90
29353;DHT22;16344;50.364;8.944;2022-08-19T10:52:46;28.60;99.90
29353;DHT22;16344;50.364;8.944;2022-08-19T10:55:12;28.70;99.90
29353;DHT22;16344;50.364;8.944;2022-08-19T10:58:18;28.80;99.90
29353;DHT22;16344;50.364;8.944;2022-08-19T11:00:57;28.90;99.90
29353;DHT22;16344;50.364;8.944;2022-08-19T11:03:25;29.10;99.90
29353;DHT22;16344;50.364;8.944;2022-08-19T11:06:00;29.20;99.90
29353;DHT22;16344;50.364;8.944;2022-08-19T11:08:25;29.10;99.90
29353;DHT22;16344;50.364;8.944;2022-08-19T11:10:53;29.10;99.90
29353;DHT22;16344;50.364;8.944;2022-08-19T11:13:22;29.00;99.90
29353;DHT22;16344;50.364;8.944;2022-08-19T11:15:56;29.00;99.90
29353;DHT22;16344;50.364;8.944;2022-08-19T11:18:22;29.00;99.90
29353;DHT22;16344;50.364;8.944;2022-08-19T11:20:47;29.10;99.90
29353;DHT22;16344;50.364;8.944;2022-08-19T11:23:14;29.10;99.90
29353;DHT22;16344;50.364;8.944;2022-08-19T11:25:39;29.00;99.90
29353;DHT22;16344;50.364;8.944;2022-08-19T11:28:05;29.10;99.90
29353;DHT22;16344;50.364;8.944;2022-08-19T11:30:30;29.30;99.90
29353;DHT22;16344;50.364;8.944;2022-08-19T11:32:56;29.60;99.90
29353;DHT22;16344;50.364;8.944;2022-08-19T11:35:22;29.90;99.90
29353;DHT22;16344;50.364;8.944;2022-08-19T11:37:48;30.00;99.90
29353;DHT22;16344;50.364;8.944;2022-08-19T11:40:14;29.90;99.90
29353;DHT22;16344;50.364;8.944;2022-08-19T11:42:39;29.90;99.90
29353;DHT22;16344;50.364;8.944;2022-08-19T11:45:20;29.90;99.90
29353;DHT22;16344;50.364;8.944;2022-08-19T11:47:46;30.00;99.90
29353;DHT22;16344;50.364;8.944;2022-08-19T11:50:13;30.10;99.90
29353;DHT22;16344;50.364;8.944;2022-08-19T11:52:39;30.20;99.90
29353;DHT22;16344;50.364;8.944;2022-08-19T11:55:05;30.10;99.90
29353;DHT22;16344;50.364;8.944;2022-08-19T11:57:31;30.10;99.90
29353;DHT22;16344;50.364;8.944;2022-08-19T11:59:56;30.00;99.90
29353;DHT22;16344;50.364;8.944;2022-08-19T12:02:22;30.00;99.90
29353;DHT22;16344;50.364;8.944;2022-08-19T12:04:48;30.00;99.90
29353;DHT22;16344;50.364;8.944;2022-08-19T12:07:14;30.30;99.90
29353;DHT22;16344;50.364;8.944;2022-08-19T12:09:40;30.30;99.90
29353;DHT22;16344;50.364;8.944;2022-08-19T12:12:05;30.20;99.90
29353;DHT22;16344;50.364;8.944;2022-08-19T12:14:31;30.00;99.90
29353;DHT22;16344;50.364;8.944;2022-08-19T12:16:57;30.20;99.90
29353;DHT22;16344;50.364;8.944;2022-08-19T12:19:23;30.20;99.90
29353;DHT22;16344;50.364;8.944;2022-08-19T12:21:50;30.40;99.90
29353;DHT22;16344;50.364;8.944;2022-08-19T12:24:16;30.70;99.90
29353;DHT22;16344;50.364;8.944;2022-08-19T12:26:48;30.80;99.90
29353;DHT22;16344;50.364;8.944;2022-08-19T12:29:14;31.00;99.90
29353;DHT22;16344;50.364;8.944;2022-08-19T12:31:40;31.00;99.90
29353;DHT22;16344;50.364;8.944;2022-08-19T12:34:05;31.10;99.90
29353;DHT22;16344;50.364;8.944;2022-08-19T12:36:31;31.00;99.90
29353;DHT22;16344;50.364;8.944;2022-08-19T12:38:58;31.00;99.90
29353;DHT22;16344;50.364;8.944;2022-08-19T12:41:25;31.10;99.90
29353;DHT22;16344;50.364;8.944;2022-08-19T12:43:50;31.30;99.90
29353;DHT22;16344;50.364;8.944;2022-08-19T12:46:17;31.40;99.90
29353;DHT22;16344;50.364;8.944;2022-08-19T12:48:43;31.10;99.90
29353;DHT22;16344;50.364;8.944;2022-08-19T12:51:13;31.00;99.90
29353;DHT22;16344;50.364;8.944;2022-08-19T12:53:40;30.80;99.90
29353;DHT22;16344;50.364;8.944;2022-08-19T12:56:07;30.60;99.90
29353;DHT22;16344;50.364;8.944;2022-08-19T12:58:33;30.60;99.90
29353;DHT22;16344;50.364;8.944;2022-08-19T13:01:05;30.60;99.90
29353;DHT22;16344;50.364;8.944;2022-08-19T13:03:31;30.50;99.90
29353;DHT22;16344;50.364;8.944;2022-08-19T13:05:56;30.20;99.90
29353;DHT22;16344;50.364;8.944;2022-08-19T13:08:23;30.30;99.90
29353;DHT22;16344;50.364;8.944;2022-08-19T13:10:48;30.50;99.90
29353;DHT22;16344;50.364;8.944;2022-08-19T13:13:14;30.50;99.90
29353;DHT22;16344;50.364;8.944;2022-08-19T13:15:41;30.40;99.90
29353;DHT22;16344;50.364;8.944;2022-08-19T13:18:09;30.70;99.90
29353;DHT22;16344;50.364;8.944;2022-08-19T13:20:37;30.60;99.90
29353;DHT22;16344;50.364;8.944;2022-08-19T13:23:04;30.60;99.90
29353;DHT22;16344;50.364;8.944;2022-08-19T13:25:30;30.60;99.90
29353;DHT22;16344;50.364;8.944;2022-08-19T13:27:56;30.40;99.90
29353;DHT22;16344;50.364;8.944;2022-08-19T13:30:22;30.40;99.90
29353;DHT22;16344;50.364;8.944;2022-08-19T13:33:06;30.40;99.90
29353;DHT22;16344;50.364;8.944;2022-08-19T13:35:50;30.40;99.90
29353;DHT22;16344;50.364;8.944;2022-08-19T13:38:22;30.40;99.90
29353;DHT22;16344;50.364;8.944;2022-08-19T13:40:49;30.60;99.90
29353;DHT22;16344;50.364;8.944;2022-08-19T13:43:15;30.60;99.90
29353;DHT22;16344;50.364;8.944;2022-08-19T13:45:41;30.80;99.90
29353;DHT22;16344;50.364;8.944;2022-08-19T13:48:07;31.00;99.90
29353;DHT22;16344;50.364;8.944;2022-08-19T13:50:42;31.10;99.90
29353;DHT22;16344;50.364;8.944;2022-08-19T13:53:09;30.90;99.90
29353;DHT22;16344;50.364;8.944;2022-08-19T13:55:38;30.90;99.90
29353;DHT22;16344;50.364;8.944;2022-08-19T13:58:03;31.00;99.90
29353;DHT22;16344;50.364;8.944;2022-08-19T14:00:34;31.00;99.90
29353;DHT22;16344;50.364;8.944;2022-08-19T14:02:59;31.00;99.90
29353;DHT22;16344;50.364;8.944;2022-08-19T14:05:26;30.90;99.90
29353;DHT22;16344;50.364;8.944;2022-08-19T14:07:53;30.70;99.90
29353;DHT22;16344;50.364;8.944;2022-08-19T14:10:20;30.60;99.90
29353;DHT22;16344;50.364;8.944;2022-08-19T14:12:46;30.40;99.90
29353;DHT22;16344;50.364;8.944;2022-08-19T14:15:13;30.40;99.90
29353;DHT22;16344;50.364;8.944;2022-08-19T14:17:40;30.10;99.90
29353;DHT22;16344;50.364;8.944;2022-08-19T14:20:08;30.10;99.90
29353;DHT22;16344;50.364;8.944;2022-08-19T14:22:35;30.10;99.90
29353;DHT22;16344;50.364;8.944;2022-08-19T14:25:01;30.10;99.90
29353;DHT22;16344;50.364;8.944;2022-08-19T14:27:27;30.00;99.90
29353;DHT22;16344;50.364;8.944;2022-08-19T14:29:52;30.10;99.90
29353;DHT22;16344;50.364;8.944;2022-08-19T14:32:18;30.00;99.90
29353;DHT22;16344;50.364;8.944;2022-08-19T14:34:44;30.00;99.90
29353;DHT22;16344;50.364;8.944;2022-08-19T14:37:14;30.10;99.90
29353;DHT22;16344;50.364;8.944;2022-08-19T14:39:43;30.10;99.90
29353;DHT22;16344;50.364;8.944;2022-08-19T14:42:11;30.00;99.90
29353;DHT22;16344;50.364;8.944;2022-08-19T14:44:36;30.00;99.90
29353;DHT22;16344;50.364;8.944;2022-08-19T14:47:02;30.00;99.90
29353;DHT22;16344;50.364;8.944;2022-08-19T14:49:28;30.00;99.90
29353;DHT22;16344;50.364;8.944;2022-08-19T14:51:54;29.90;99.90
29353;DHT22;16344;50.364;8.944;2022-08-19T14:54:20;29.80;99.90
29353;DHT22;16344;50.364;8.944;2022-08-19T14:56:45;29.90;99.90
29353;DHT22;16344;50.364;8.944;2022-08-19T14:59:11;29.80;99.90
29353;DHT22;16344;50.364;8.944;2022-08-19T15:01:36;29.80;99.90
29353;DHT22;16344;50.364;8.944;2022-08-19T15:04:02;29.70;99.90
29353;DHT22;16344;50.364;8.944;2022-08-19T15:06:28;29.70;99.90
29353;DHT22;16344;50.364;8.944;2022-08-19T15:08:54;29.70;99.90
29353;DHT22;16344;50.364;8.944;2022-08-19T15:11:22;29.70;99.90
29353;DHT22;16344;50.364;8.944;2022-08-19T15:13:49;29.60;99.90
29353;DHT22;16344;50.364;8.944;2022-08-19T15:16:15;29.70;99.90
29353;DHT22;16344;50.364;8.944;2022-08-19T15:18:41;29.50;99.90
29353;DHT22;16344;50.364;8.944;2022-08-19T15:21:10;29.60;99.90
29353;DHT22;16344;50.364;8.944;2022-08-19T15:23:37;29.60;99.90
29353;DHT22;16344;50.364;8.944;2022-08-19T15:26:02;29.60;99.90
29353;DHT22;16344;50.364;8.944;2022-08-19T15:28:30;29.70;99.90
29353;DHT22;16344;50.364;8.944;2022-08-19T15:30:57;29.60;99.90
29353;DHT22;16344;50.364;8.944;2022-08-19T15:33:22;29.50;99.90
29353;DHT22;16344;50.364;8.944;2022-08-19T15:35:48;29.50;99.90
29353;DHT22;16344;50.364;8.944;2022-08-19T15:38:16;29.60;99.90
29353;DHT22;16344;50.364;8.944;2022-08-19T15:40:44;29.60;99.90
29353;DHT22;16344;50.364;8.944;2022-08-19T15:43:10;29.70;99.90
29353;DHT22;16344;50.364;8.944;2022-08-19T15:45:36;29.70;99.90
29353;DHT22;16344;50.364;8.944;2022-08-19T15:48:03;29.80;99.90